Time;durP1;ratioP1;P1;durP2;ratioP2;P2;SDS_P1;SDS_P2;PMS_P1;PMS_P2;Temp;Humidity;BMP_temperature;BMP_pressure;BME280_temperature;BME280_humidity;BME280_pressure;Samples;Min_cycle;Max_cycle;Signal;HPM_P1;HPM_P2
2022/09/28 00:01:09;;;;;;;4.10;2.60;;;;;;;21.82;53.46;99601.97;5114806;28;20039;-74
2022/09/28 00:03:36;;;;;;;4.90;2.40;;;;;;;21.81;53.58;99601.13;5114906;28;20043;-75
2022/09/28 00:06:09;;;;;;;3.58;2.53;;;;;;;21.81;53.41;99606.53;5114243;28;20047;-75
2022/09/28 00:08:36;;;;;;;4.47;2.47;;;;;;;21.81;53.31;99611.91;5112368;28;20056;-75
2022/09/28 00:11:05;;;;;;;4.45;2.75;;;;;;;21.81;53.41;99611.91;5114791;28;20055;-75
2022/09/28 00:13:34;;;;;;;6.60;2.63;;;;;;;21.80;53.52;99610.25;5114445;28;20043;-75
2022/09/28 00:16:15;;;;;;;6.00;2.72;;;;;;;21.80;53.54;99610.25;5114469;28;20044;-75
2022/09/28 00:18:44;;;;;;;5.10;2.60;;;;;;;21.81;53.43;99611.91;5114436;28;20044;-75
2022/09/28 00:21:15;;;;;;;5.60;2.33;;;;;;;21.80;53.36;99612.09;5114384;28;20043;-75
2022/09/28 00:26:31;;;;;;;3.70;2.70;;;;;;;21.79;53.46;99613.94;5114417;28;20044;-74
2022/09/28 00:29:01;;;;;;;4.00;2.45;;;;;;;21.79;53.47;99608.53;5113724;28;20062;-75
2022/09/28 00:31:31;;;;;;;4.03;2.95;;;;;;;21.80;53.47;99609.41;5096231;28;20058;-75
2022/09/28 00:34:04;;;;;;;5.40;2.30;;;;;;;21.79;53.44;99607.72;5117036;28;20406;-74
2022/09/28 00:36:32;;;;;;;5.65;2.60;;;;;;;21.79;53.25;99607.72;5118412;28;20043;-74
2022/09/28 00:39:04;;;;;;;4.35;2.58;;;;;;;21.80;53.38;99615.63;5118575;28;20459;-75
2022/09/28 00:41:32;;;;;;;3.90;2.30;;;;;;;21.79;53.28;99605.03;5118308;28;20050;-75
2022/09/28 00:44:39;;;;;;;3.22;2.38;;;;;;;21.78;53.44;99606.03;5116575;28;20058;-75
2022/09/28 00:47:40;;;;;;;3.90;2.08;;;;;;;21.78;53.38;99612.25;5116084;28;20510;-74
2022/09/28 00:50:13;;;;;;;4.60;2.83;;;;;;;21.79;53.29;99607.72;5118046;28;20044;-74
2022/09/28 00:53:08;;;;;;;3.42;2.20;;;;;;;21.77;53.27;99598.97;5115863;28;20055;-75
2022/09/28 00:55:45;;;;;;;4.82;2.88;;;;;;;21.78;53.29;99606.03;5150411;27;20043;-75
2022/09/28 00:58:17;;;;;;;6.22;2.38;;;;;;;21.77;53.30;99597.13;5150141;27;20052;-75
2022/09/28 01:00:44;;;;;;;4.27;2.13;;;;;;;21.78;53.38;99597.97;5118239;28;20367;-75
2022/09/28 01:03:13;;;;;;;4.25;2.25;;;;;;;21.77;53.36;99599.81;5099225;28;20043;-75
2022/09/28 01:05:40;;;;;;;3.65;2.50;;;;;;;21.77;53.29;99596.28;5150010;27;20040;-75
2022/09/28 01:08:09;;;;;;;4.10;2.10;;;;;;;21.77;53.33;99589.03;5115175;28;20056;-75
2022/09/28 01:10:39;;;;;;;3.63;2.00;;;;;;;21.77;53.38;99588.22;5149803;27;20048;-75
2022/09/28 01:13:06;;;;;;;2.72;2.20;;;;;;;21.77;53.27;99589.03;5115193;28;20044;-75
2022/09/28 01:15:46;;;;;;;3.65;2.47;;;;;;;21.76;53.19;99598.16;5117626;28;20043;-75
2022/09/28 01:18:48;;;;;;;3.63;2.50;;;;;;;21.76;53.31;99591.94;5115123;28;20052;-75
2022/09/28 01:21:21;;;;;;;3.78;2.25;;;;;;;21.76;53.27;99589.22;5097954;28;20054;-75
2022/09/28 01:24:12;;;;;;;4.22;2.17;;;;;;;21.76;53.17;99578.47;5116566;28;20048;-75
2022/09/28 01:27:02;;;;;;;6.05;2.55;;;;;;;21.74;53.18;99581.31;5149451;27;20070;-75
2022/09/28 01:29:29;;;;;;;4.30;2.70;;;;;;;21.75;53.12;99579.44;5115710;28;20050;-74
2022/09/28 01:32:20;;;;;;;4.57;2.25;;;;;;;21.75;53.46;99582.97;5115069;28;20051;-75
2022/09/28 01:35:00;;;;;;;4.63;2.92;;;;;;;21.74;53.27;99584.00;5114597;28;20063;-75
2022/09/28 01:37:41;;;;;;;4.88;2.10;;;;;;;21.74;53.13;99562.44;5116990;28;20430;-75
2022/09/28 01:40:10;;;;;;;3.03;2.05;;;;;;;21.75;53.08;99568.69;5114691;28;20044;-75
2022/09/28 01:42:40;;;;;;;2.78;2.03;;;;;;;21.75;53.33;99568.69;5116516;28;20414;-75
2022/09/28 01:45:17;;;;;;;3.38;2.50;;;;;;;21.74;53.11;99562.44;5113805;28;20067;-75
2022/09/28 01:47:46;;;;;;;4.13;2.83;;;;;;;21.75;53.23;99565.97;5116987;28;20043;-75
2022/09/28 01:50:18;;;;;;;3.53;2.55;;;;;;;21.74;53.20;99557.06;5114939;28;20395;-75
2022/09/28 01:52:52;;;;;;;4.07;2.60;;;;;;;21.73;53.20;99567.00;5114481;28;20051;-75
2022/09/28 01:55:37;;;;;;;2.85;2.40;;;;;;;21.72;53.21;99559.94;5114561;28;20047;-75
2022/09/28 01:58:10;;;;;;;4.03;2.67;;;;;;;21.71;53.10;99563.66;5148941;27;20048;-75
2022/09/28 02:00:43;;;;;;;3.55;2.22;;;;;;;21.72;53.14;99557.25;5097515;28;20048;-75
2022/09/28 02:03:15;;;;;;;;;;;;;;;21.73;53.14;99560.78;5116872;28;20051;-75
2022/09/28 02:06:01;;;;;;;3.97;2.53;;;;;;;21.72;53.12;99557.25;5114821;28;20378;-75
2022/09/28 02:08:36;;;;;;;3.50;2.45;;;;;;;21.73;53.14;99561.63;5116329;28;20052;-75
2022/09/28 02:11:09;;;;;;;3.92;2.65;;;;;;;21.72;53.03;99562.66;5148712;27;20046;-75
2022/09/28 02:13:45;;;;;;;3.90;2.72;;;;;;;21.72;53.13;99559.94;5114351;28;20050;-75
2022/09/28 02:16:37;;;;;;;2.95;2.30;;;;;;;21.72;53.11;99553.72;5114168;28;20051;-75
2022/09/28 02:19:09;;;;;;;5.05;2.10;;;;;;;21.71;53.10;99560.97;5148706;27;20058;-74
2022/09/28 02:22:08;;;;;;;3.80;2.53;;;;;;;21.71;53.09;99566.38;5114142;28;20058;-75
2022/09/28 02:24:44;;;;;;;4.03;2.25;;;;;;;21.71;53.06;99568.19;5115752;28;20044;-75
2022/09/28 02:27:46;;;;;;;2.95;2.00;;;;;;;21.72;53.00;99570.72;5113705;28;20051;-75
2022/09/28 02:30:14;;;;;;;4.35;2.65;;;;;;;21.71;53.04;99570.88;5114138;28;20040;-75
2022/09/28 02:32:45;;;;;;;4.95;2.50;;;;;;;21.71;53.13;99577.13;5115729;28;20047;-75
2022/09/28 02:35:15;;;;;;;3.88;2.58;;;;;;;21.70;53.01;99572.75;5113833;28;20066;-75
2022/09/28 02:37:45;;;;;;;6.20;2.72;;;;;;;21.71;53.01;99568.19;5148191;27;20047;-75
2022/09/28 02:40:28;;;;;;;4.25;2.40;;;;;;;21.70;53.05;99571.91;5115944;28;20370;-75
2022/09/28 02:43:00;;;;;;;4.70;2.50;;;;;;;21.70;53.08;99567.34;5114124;28;20395;-75
2022/09/28 02:45:50;;;;;;;3.30;2.30;;;;;;;21.71;53.00;99573.56;5148008;27;20051;-75
2022/09/28 02:48:53;;;;;;;3.45;2.10;;;;;;;21.69;53.00;99573.75;5113636;28;20059;-75
2022/09/28 02:51:46;;;;;;;3.15;2.50;;;;;;;21.69;53.03;99576.47;5148410;27;20058;-75
2022/09/28 02:54:25;;;;;;;3.15;2.53;;;;;;;21.70;53.05;99564.66;5113532;28;20051;-75
2022/09/28 02:57:05;;;;;;;3.58;2.33;;;;;;;21.69;53.07;99559.47;5147848;27;20414;-74
2022/09/28 03:00:08;;;;;;;3.47;2.50;;;;;;;21.68;53.06;99561.31;5113222;28;20052;-75
2022/09/28 03:02:45;;;;;;;3.83;2.38;;;;;;;21.68;52.90;99566.72;5035842;28;20063;-75
2022/09/28 03:05:40;;;;;;;3.53;2.13;;;;;;;21.68;52.97;99564.03;5036019;28;20049;-75
2022/09/28 03:08:20;;;;;;;4.25;2.55;;;;;;;21.67;52.92;99567.72;5052194;28;20049;-75
2022/09/28 03:11:22;;;;;;;4.75;2.75;;;;;;;21.68;53.03;99571.25;5035091;28;20087;-75
2022/09/28 03:13:52;;;;;;;3.08;2.33;;;;;;;21.68;52.90;99569.41;4937906;29;20047;-75
2022/09/28 03:16:23;;;;;;;3.30;1.92;;;;;;;21.68;53.08;99568.56;4938039;29;20419;-76
2022/09/28 03:18:50;;;;;;;3.00;2.60;;;;;;;21.66;53.00;99563.34;4954619;29;20063;-75
2022/09/28 03:21:18;;;;;;;3.33;2.03;;;;;;;21.66;52.96;99562.50;4938977;29;20385;-75
2022/09/28 03:23:46;;;;;;;3.08;2.20;;;;;;;21.66;53.04;99560.66;4937992;29;20055;-75
2022/09/28 03:26:15;;;;;;;3.72;2.47;;;;;;;21.67;53.18;99561.47;4937675;29;20491;-75
2022/09/28 03:28:43;;;;;;;3.63;2.55;;;;;;;21.66;53.28;99560.66;4938114;29;20051;-75
2022/09/28 03:31:16;;;;;;;3.90;2.42;;;;;;;21.66;53.29;99566.03;4937914;29;20434;-75
2022/09/28 03:33:44;;;;;;;4.93;3.13;;;;;;;21.67;53.07;99566.88;4937418;29;20407;-75
2022/09/28 03:36:13;;;;;;;3.20;2.20;;;;;;;21.66;53.22;99568.72;4954263;29;20534;-75
2022/09/28 03:38:40;;;;;;;2.88;2.25;;;;;;;21.66;53.27;99566.03;4965269;28;20060;-75
2022/09/28 03:41:09;;;;;;;6.28;2.55;;;;;;;21.67;53.13;99566.88;5031725;28;20092;-74
2022/09/28 03:43:40;;;;;;;5.53;2.30;;;;;;;21.66;53.08;99565.19;5015019;28;20053;-75
2022/09/28 03:46:08;;;;;;;3.95;3.00;;;;;;;21.65;53.33;99558.97;5031667;28;20053;-75
2022/09/28 03:48:41;;;;;;;4.28;2.50;;;;;;;21.66;53.39;99559.81;5026261;28;20061;-75
2022/09/28 03:51:11;;;;;;;3.35;2.25;;;;;;;21.65;53.48;99558.97;5146782;27;20411;-76
2022/09/28 03:53:39;;;;;;;4.65;2.40;;;;;;;21.65;53.52;99558.97;5112668;28;20422;-75
2022/09/28 03:56:11;;;;;;;3.75;2.10;;;;;;;21.66;53.54;99554.44;5112657;28;20051;-75
2022/09/28 03:58:39;;;;;;;4.68;2.47;;;;;;;21.66;53.58;99549.03;5112893;28;20074;-75
2022/09/28 04:01:14;;;;;;;5.32;2.63;;;;;;;21.66;53.57;99544.50;5112175;28;20051;-75
2022/09/28 04:03:46;;;;;;;2.83;2.22;;;;;;;21.66;53.45;99546.34;5112430;28;20052;-76
2022/09/28 04:06:14;;;;;;;3.75;2.63;;;;;;;21.65;53.32;99545.50;5114006;28;20510;-74
2022/09/28 04:08:42;;;;;;;4.13;2.75;;;;;;;21.66;53.30;99540.97;5113350;28;20398;-75
2022/09/28 04:11:10;;;;;;;5.60;2.90;;;;;;;21.65;53.27;99534.75;5095413;28;20058;-75
2022/09/28 04:13:37;;;;;;;6.45;2.42;;;;;;;21.66;53.32;99524.81;5112043;28;20070;-75
2022/09/28 04:16:09;;;;;;;3.72;2.65;;;;;;;21.66;53.18;99524.81;5112239;28;20063;-75
2022/09/28 04:18:38;;;;;;;5.10;2.83;;;;;;;21.65;53.29;99531.22;5146652;27;20051;-75
2022/09/28 04:21:24;;;;;;;5.63;2.90;;;;;;;21.64;53.24;99526.84;5120810;28;20051;-75
2022/09/28 04:24:00;;;;;;;5.10;2.47;;;;;;;21.63;53.24;99531.41;5112207;28;20505;-75
2022/09/28 04:26:28;;;;;;;5.30;2.50;;;;;;;21.64;53.24;99527.69;5113895;28;20046;-76
2022/09/28 04:29:14;;;;;;;4.68;2.80;;;;;;;21.63;53.18;99530.53;5111694;28;20054;-75
2022/09/28 04:32:11;;;;;;;4.93;2.30;;;;;;;21.63;53.18;99528.72;5111295;28;20051;-75
2022/09/28 04:34:40;;;;;;;3.85;2.03;;;;;;;21.64;53.18;99519.59;5112037;28;20414;-76
2022/09/28 04:37:11;;;;;;;2.50;2.10;;;;;;;21.63;53.19;99527.84;5112093;28;20051;-76
2022/09/28 04:39:39;;;;;;;3.40;2.50;;;;;;;21.63;53.23;99526.00;5112899;28;20059;-76
2022/09/28 04:42:12;;;;;;;2.83;2.08;;;;;;;21.62;53.14;99516.25;5112288;28;20054;-76
2022/09/28 04:44:40;;;;;;;3.83;2.17;;;;;;;21.63;53.15;99511.69;5146350;27;20498;-76
2022/09/28 04:47:08;;;;;;;2.63;2.03;;;;;;;21.63;53.02;99520.63;5112680;28;20048;-74
2022/09/28 04:49:42;;;;;;;3.45;2.13;;;;;;;21.62;53.16;99518.94;5120584;28;20078;-75
2022/09/28 04:52:26;;;;;;;4.13;3.00;;;;;;;21.62;53.01;99520.78;5111913;28;20391;-75
2022/09/28 04:54:53;;;;;;;2.97;2.35;;;;;;;21.62;53.03;99527.00;5111446;28;20044;-74
2022/09/28 04:57:20;;;;;;;3.78;2.60;;;;;;;21.61;53.10;99524.50;5112107;28;20419;-74
2022/09/28 04:59:48;;;;;;;5.18;2.28;;;;;;;21.62;53.11;99531.56;5111579;28;20052;-75
2022/09/28 05:02:15;;;;;;;4.65;2.60;;;;;;;21.62;53.06;99531.56;5112545;28;20483;-75
2022/09/28 05:05:01;;;;;;;3.13;2.28;;;;;;;21.61;53.07;99528.03;5120532;28;20050;-75
2022/09/28 05:07:37;;;;;;;3.03;2.10;;;;;;;21.61;53.15;99522.66;5111906;28;20403;-75
2022/09/28 05:10:06;;;;;;;2.70;2.15;;;;;;;21.61;52.89;99529.88;5111693;28;20495;-75
2022/09/28 05:12:34;;;;;;;3.35;2.40;;;;;;;21.61;52.99;99530.72;5111821;28;20055;-77
2022/09/28 05:15:03;;;;;;;5.35;2.08;;;;;;;21.60;53.00;99529.06;5112376;28;20490;-76
2022/09/28 05:17:30;;;;;;;3.03;2.20;;;;;;;21.59;53.17;99522.00;5094886;28;20066;-76
2022/09/28 05:20:08;;;;;;;4.50;2.58;;;;;;;21.59;53.05;99516.63;5149784;27;20055;-76
2022/09/28 05:22:36;;;;;;;2.67;2.13;;;;;;;21.60;53.02;99528.22;5115182;28;20384;-76
2022/09/28 05:25:05;;;;;;;3.40;2.28;;;;;;;21.58;53.03;99536.47;5115375;28;20065;-76
2022/09/28 05:27:44;;;;;;;3.55;2.33;;;;;;;21.59;53.06;99538.16;5149527;27;20043;-76
2022/09/28 05:30:28;;;;;;;5.05;2.40;;;;;;;21.59;53.08;99529.22;5150109;27;20383;-76
2022/09/28 05:33:14;;;;;;;4.00;2.85;;;;;;;21.59;53.03;99532.78;5119481;28;20059;-76
2022/09/28 05:35:46;;;;;;;3.35;1.83;;;;;;;21.58;53.07;99520.31;5116640;28;20054;-76
2022/09/28 05:38:20;;;;;;;3.88;2.30;;;;;;;21.59;53.12;99524.69;5114875;28;20406;-76
2022/09/28 05:40:47;;;;;;;3.30;2.50;;;;;;;21.58;53.03;99524.84;5114649;28;20047;-76
2022/09/28 05:43:15;;;;;;;4.70;2.28;;;;;;;21.58;53.16;99531.06;5115184;28;20051;-76
2022/09/28 05:45:43;;;;;;;4.97;2.45;;;;;;;21.58;53.11;99546.41;5114772;28;20491;-76
2022/09/28 05:48:10;;;;;;;5.70;2.20;;;;;;;21.59;53.15;99537.28;5149829;27;20058;-76
2022/09/28 05:50:37;;;;;;;4.65;2.53;;;;;;;21.57;53.19;99534.78;5115193;28;20062;-76
2022/09/28 05:53:08;;;;;;;4.60;2.20;;;;;;;21.58;53.16;99536.47;5116472;28;20047;-76
2022/09/28 05:55:38;;;;;;;3.90;2.22;;;;;;;21.57;53.12;99537.47;5116162;28;20051;-76
2022/09/28 05:58:07;;;;;;;3.53;2.10;;;;;;;21.58;53.08;99546.41;5115500;28;20048;-76
2022/09/28 06:00:35;;;;;;;3.72;2.58;;;;;;;21.58;53.16;99549.94;5116327;28;20054;-75
2022/09/28 06:03:09;;;;;;;2.38;1.85;;;;;;;21.57;53.22;99550.94;5115850;28;20048;-76
2022/09/28 06:05:38;;;;;;;3.15;1.80;;;;;;;21.57;53.16;99552.81;5116457;28;20051;-76
2022/09/28 06:08:07;;;;;;;5.43;2.50;;;;;;;21.57;53.20;99561.72;5118072;28;20043;-76
2022/09/28 06:10:34;;;;;;;5.05;2.70;;;;;;;21.56;53.20;99568.13;5116433;28;20055;-76
2022/09/28 06:13:02;;;;;;;4.45;2.53;;;;;;;21.56;53.39;99565.44;5148964;27;20043;-75
2022/09/28 06:15:31;;;;;;;3.15;2.13;;;;;;;21.57;53.26;99558.19;5114108;28;20051;-76
2022/09/28 06:18:03;;;;;;;3.13;2.35;;;;;;;21.57;53.20;99552.81;5149033;27;20055;-75
2022/09/28 06:21:01;;;;;;;3.63;2.25;;;;;;;21.56;53.23;99551.13;5116457;28;20046;-76
2022/09/28 06:23:35;;;;;;;4.97;2.45;;;;;;;21.56;53.26;99559.22;5116289;28;20048;-76
2022/09/28 06:26:02;;;;;;;3.30;2.40;;;;;;;21.55;53.25;99558.34;5114617;28;20062;-76
2022/09/28 06:28:30;;;;;;;3.05;2.35;;;;;;;21.56;53.21;99554.66;5114873;28;20056;-76
2022/09/28 06:30:59;;;;;;;4.47;2.35;;;;;;;21.56;53.27;99549.28;5114392;28;20059;-75
2022/09/28 06:33:27;;;;;;;2.90;1.95;;;;;;;21.57;53.29;99550.13;5114107;28;20047;-75
2022/09/28 06:35:57;;;;;;;3.88;2.40;;;;;;;21.56;53.22;99545.75;5114585;28;20058;-76
2022/09/28 06:38:24;;;;;;;3.80;2.40;;;;;;;21.56;53.11;99543.06;5148717;27;20380;-75
2022/09/28 06:40:52;;;;;;;4.70;2.38;;;;;;;21.56;53.37;99543.06;5114566;28;20047;-76
2022/09/28 06:43:21;;;;;;;4.47;2.30;;;;;;;21.56;53.39;99543.06;5148830;27;20051;-76
2022/09/28 06:46:17;;;;;;;5.50;2.47;;;;;;;21.56;53.34;99535.81;5094405;28;20126;-75
2022/09/28 06:48:54;;;;;;;6.30;2.50;;;;;;;21.56;53.38;99537.66;5100132;28;20458;-75
2022/09/28 06:51:45;;;;;;;4.65;2.55;;;;;;;21.56;53.48;99529.59;5093168;28;20055;-75
2022/09/28 06:54:24;;;;;;;4.75;2.40;;;;;;;21.57;53.60;99531.25;5093012;28;20052;-75
2022/09/28 06:57:01;;;;;;;4.53;2.25;;;;;;;21.56;53.61;99530.44;5092769;28;20052;-75
2022/09/28 06:59:30;;;;;;;3.35;2.53;;;;;;;21.57;53.50;99539.34;5091984;28;20094;-75
2022/09/28 07:01:59;;;;;;;2.97;2.20;;;;;;;21.56;53.72;99533.13;5092716;28;20048;-77
2022/09/28 07:04:49;;;;;;;4.85;2.40;;;;;;;21.57;53.77;99534.78;5085216;28;20055;-78
2022/09/28 07:07:35;;;;;;;5.60;2.80;;;;;;;21.58;53.59;99546.41;5094983;28;20400;-76
2022/09/28 07:10:26;;;;;;;7.68;2.70;;;;;;;21.57;53.56;99545.56;5034375;28;20049;-76
2022/09/28 07:13:18;;;;;;;4.40;2.50;;;;;;;21.59;53.69;99550.75;5033438;28;20042;-74
2022/09/28 07:16:06;;;;;;;4.90;2.45;;;;;;;21.59;53.74;99554.31;5049724;28;20070;-75
2022/09/28 07:18:34;;;;;;;5.07;2.45;;;;;;;21.61;53.66;99564.91;5049589;28;20424;-75
2022/09/28 07:21:03;;;;;;;7.15;2.50;;;;;;;21.60;53.74;99557.84;5032826;28;20072;-75
2022/09/28 07:23:31;;;;;;;3.75;2.40;;;;;;;21.60;53.74;99561.38;5052641;28;20041;-74
2022/09/28 07:26:22;;;;;;;7.78;2.80;;;;;;;21.60;53.78;99556.00;4992975;28;20069;-77
2022/09/28 07:29:12;;;;;;;7.90;2.30;;;;;;;21.61;53.85;99552.28;4993377;28;20151;-78
2022/09/28 07:32:10;;;;;;;4.90;2.10;;;;;;;21.63;54.39;99549.38;4993014;28;20061;-77
2022/09/28 07:34:52;;;;;;;6.38;3.50;;;;;;;21.63;53.44;99552.94;4989346;28;20060;-75
2022/09/28 07:37:41;;;;;;;4.45;3.05;;;;;;;21.62;52.94;99559.31;4993116;28;20061;-75
2022/09/28 07:43:02;;;;;;;9.27;3.00;;;;;;;21.62;52.93;99558.50;4991983;28;20058;-76
2022/09/28 07:45:34;;;;;;;4.75;3.55;;;;;;;21.60;52.91;99560.53;4994116;28;20058;-77
2022/09/28 07:48:02;;;;;;;8.00;3.40;;;;;;;21.60;53.14;99552.47;4934715;28;20052;-75
2022/09/28 07:50:50;;;;;;;4.13;2.42;;;;;;;21.62;53.41;99556.63;4899433;29;20059;-80
2022/09/28 07:53:38;;;;;;;4.30;2.50;;;;;;;21.63;53.61;99558.34;4913830;28;20052;-76
2022/09/28 07:56:29;;;;;;;8.70;2.92;;;;;;;21.64;53.50;99560.00;4914388;28;20520;-78
2022/09/28 07:59:04;;;;;;;6.15;2.72;;;;;;;21.65;53.50;99558.97;4898199;29;20052;-77
2022/09/28 08:01:50;;;;;;;5.10;3.13;;;;;;;21.64;53.45;99549.22;4921173;29;20063;-75
2022/09/28 08:04:17;;;;;;;4.05;2.75;;;;;;;21.67;53.59;99550.72;4983138;28;20515;-75
2022/09/28 08:06:47;;;;;;;5.18;2.80;;;;;;;21.67;53.83;99542.63;5010954;28;20524;-75
2022/09/28 08:09:14;;;;;;;5.38;2.83;;;;;;;21.68;53.88;99542.47;5010352;28;20050;-75
2022/09/28 09:40:34;;;;;;;6.30;4.00;;;;;;;21.92;56.87;99511.81;5070945;28;20386;-77
2022/09/28 09:43:35;;;;;;;7.60;4.00;;;;;;;21.91;58.58;99503.91;5077796;28;20106;-76
2022/09/28 09:47:04;;;;;;;8.15;4.80;;;;;;;21.87;57.91;99499.88;5056423;28;20071;-76
2022/09/28 09:50:00;;;;;;;8.07;5.10;;;;;;;21.85;57.63;99504.63;5071735;28;20053;-76
2022/09/28 09:52:54;;;;;;;8.15;4.95;;;;;;;21.79;56.64;99500.78;5054856;28;20045;-77
2022/09/28 09:55:40;;;;;;;7.20;5.43;;;;;;;21.72;56.30;99518.72;5070320;28;20045;-75
2022/09/28 09:58:46;;;;;;;8.55;5.10;;;;;;;21.65;56.47;99520.44;5069218;28;20045;-75
2022/09/28 10:01:22;;;;;;;8.98;5.22;;;;;;;21.55;56.63;99520.66;5069647;28;20045;-75
2022/09/28 10:04:29;;;;;;;;;;;;;;;21.45;56.82;99517.38;5069302;28;20049;-76
2022/09/28 10:07:04;;;;;;;22.48;20.70;;;;;;;21.41;57.10;99518.72;5052881;28;19920;-75
2022/09/28 10:09:40;;;;;;;9.70;7.57;;;;;;;21.36;57.13;99515.75;5051919;28;20048;-76
2022/09/28 10:12:32;;;;;;;17.85;16.60;;;;;;;21.31;57.17;99501.91;5052267;28;20523;-75
2022/09/28 10:15:05;;;;;;;12.77;11.65;;;;;;;21.26;57.39;99502.44;5032685;28;20144;-75
2022/09/28 10:17:39;;;;;;;10.90;9.48;;;;;;;21.23;57.55;99500.97;5033325;28;20053;-77
2022/09/28 10:20:36;;;;;;;;;;;;;;;21.22;60.59;99496.59;5049015;28;20380;-77
2022/09/28 10:23:23;;;;;;;6.85;4.90;;;;;;;21.23;61.66;99500.97;5048417;28;20291;-75
2022/09/28 10:25:56;;;;;;;6.18;3.78;;;;;;;21.27;61.89;99496.06;5048501;28;20614;-75
2022/09/28 10:28:49;;;;;;;5.78;3.67;;;;;;;21.29;61.82;99498.59;5031267;28;20153;-74
2022/09/28 10:31:52;;;;;;;4.63;3.67;;;;;;;21.33;62.58;99497.25;5047368;28;20056;-77
2022/09/28 10:34:27;;;;;;;6.93;3.88;;;;;;;21.35;62.65;99489.81;4972238;28;20053;-76
2022/09/28 10:37:05;;;;;;;4.60;3.38;;;;;;;21.39;61.92;99483.91;4987784;28;20054;-76
2022/09/28 10:39:54;;;;;;;5.18;3.35;;;;;;;21.40;62.08;99490.97;4971839;28;20058;-76
2022/09/28 10:42:34;;;;;;;5.55;3.10;;;;;;;21.43;62.56;99484.38;4972072;28;20062;-74
2022/09/28 10:45:21;;;;;;;5.50;3.38;;;;;;;21.43;62.05;99485.25;4988555;28;20425;-76
2022/09/28 10:47:52;;;;;;;4.90;3.10;;;;;;;21.44;62.78;99473.44;4968380;28;20506;-76
2022/09/28 10:50:26;;;;;;;7.05;3.40;;;;;;;21.46;62.86;99484.03;4946967;28;20059;-76
2022/09/28 10:53:19;;;;;;;4.63;3.30;;;;;;;21.48;62.70;99482.00;4955722;29;20454;-76
2022/09/28 10:56:22;;;;;;;5.50;3.28;;;;;;;21.48;61.91;99464.00;4957821;28;20063;-76
2022/09/28 10:58:59;;;;;;;6.43;3.25;;;;;;;21.50;62.31;99458.41;4940500;29;20051;-78
2022/09/28 11:01:43;;;;;;;5.00;3.33;;;;;;;21.50;62.67;99446.81;4939724;29;20387;-75
2022/09/28 11:04:20;;;;;;;7.80;3.25;;;;;;;21.51;62.33;99449.31;4940086;28;20066;-75
2022/09/28 11:06:49;;;;;;;5.10;3.22;;;;;;;21.53;61.94;99446.47;4939663;29;20055;-74
2022/09/28 11:09:28;;;;;;;3.92;2.70;;;;;;;21.52;62.26;99434.88;5023069;28;20068;-75
2022/09/28 11:12:05;;;;;;;5.50;3.63;;;;;;;21.52;61.20;99431.34;5034596;28;20497;-74
2022/09/28 11:14:36;;;;;;;;;;;;;;;21.53;62.99;99433.84;5051404;28;20061;-75
2022/09/28 11:17:32;;;;;;;6.35;3.00;;;;;;;21.54;61.98;99427.44;5051620;28;19988;-75
2022/09/28 11:20:18;;;;;;;5.47;2.70;;;;;;;21.54;63.39;99432.81;5034772;28;20115;-77
2022/09/28 11:23:19;;;;;;;3.53;2.85;;;;;;;21.54;62.99;99429.28;5034615;28;20049;-75
2022/09/28 11:26:08;;;;;;;5.03;3.15;;;;;;;21.56;62.98;99427.25;5034677;28;20121;-75
2022/09/28 11:28:37;;;;;;;7.03;2.92;;;;;;;21.55;63.14;99428.25;5036078;28;20052;-76
2022/09/28 11:31:11;;;;;;;5.05;2.90;;;;;;;21.55;63.28;99431.78;5034114;28;20056;-75
2022/09/28 11:34:06;;;;;;;6.95;2.75;;;;;;;21.56;63.23;99427.25;5034780;28;20057;-75
2022/09/28 11:37:43;;;;;;;7.30;3.30;;;;;;;21.55;62.86;99426.41;5038514;28;20066;-75
2022/09/28 11:40:27;;;;;;;7.32;3.50;;;;;;;21.56;61.98;99420.03;5033316;28;20045;-77
2022/09/28 11:43:00;;;;;;;5.00;3.10;;;;;;;21.57;61.86;99415.47;5032939;28;20069;-75
2022/09/28 11:45:49;;;;;;;4.18;3.13;;;;;;;21.57;62.74;99405.53;5033722;28;20049;-75
2022/09/28 11:48:24;;;;;;;4.00;2.63;;;;;;;21.57;62.01;99410.09;5033175;28;20053;-75
2022/09/28 11:51:15;;;;;;;6.30;3.35;;;;;;;21.57;62.48;99410.09;5033682;28;20050;-75
2022/09/28 11:53:51;;;;;;;5.57;3.03;;;;;;;21.57;63.31;99407.38;5033988;28;20532;-75
2022/09/28 11:56:26;;;;;;;5.35;3.00;;;;;;;21.56;62.96;99409.25;5033476;28;20053;-75
2022/09/28 11:59:04;;;;;;;5.72;3.67;;;;;;;21.55;63.38;99401.34;5032437;28;20072;-75
2022/09/28 12:01:57;;;;;;;4.65;3.00;;;;;;;21.54;63.55;99395.13;5033770;28;20065;-75
2022/09/28 12:04:44;;;;;;;6.45;2.90;;;;;;;21.54;63.40;99387.03;5033152;28;20053;-76
2022/09/28 12:07:14;;;;;;;;;;;;;;;21.55;63.76;99374.41;5016534;28;20061;-73
2022/09/28 12:09:59;;;;;;;7.25;3.05;;;;;;;21.55;63.90;99375.22;5016251;28;19921;-74
2022/09/28 12:12:32;;;;;;;6.15;2.85;;;;;;;21.55;63.80;99380.63;5032695;28;20049;-75
2022/09/28 12:15:15;;;;;;;4.65;2.65;;;;;;;21.56;64.04;99376.94;5045659;28;20416;-75
2022/09/28 12:17:49;;;;;;;9.02;3.10;;;;;;;21.56;63.74;99382.31;5034804;28;20076;-73
2022/09/28 12:20:22;;;;;;;6.55;3.40;;;;;;;21.57;63.87;99375.91;5034570;28;20044;-74
2022/09/28 12:23:14;;;;;;;5.95;2.72;;;;;;;21.58;63.77;99382.97;5034725;28;20041;-75
2022/09/28 12:25:56;;;;;;;7.63;2.85;;;;;;;21.60;63.33;99383.63;5034789;28;20053;-74
2022/09/28 12:28:40;;;;;;;4.43;2.50;;;;;;;21.60;63.29;99370.16;5034552;28;20049;-74
2022/09/28 12:31:20;;;;;;;6.07;2.95;;;;;;;21.61;63.20;99373.69;5034347;28;20045;-74
2022/09/28 12:33:49;;;;;;;5.68;2.65;;;;;;;21.60;63.40;99372.03;5034521;28;20045;-74
2022/09/28 12:36:40;;;;;;;7.43;2.65;;;;;;;21.61;63.62;99369.13;5034174;28;20138;-73
2022/09/28 12:39:57;;;;;;;6.80;3.20;;;;;;;21.61;63.68;99374.53;5033971;28;20066;-75
2022/09/28 12:42:44;;;;;;;5.93;2.60;;;;;;;21.62;63.61;99369.97;5032080;28;20080;-75
2022/09/28 12:45:45;;;;;;;4.45;2.40;;;;;;;21.62;63.61;99370.81;5032133;28;20468;-75
2022/09/28 12:48:41;;;;;;;4.18;3.58;;;;;;;21.63;63.38;99372.50;5032088;28;20091;-74
2022/09/28 12:51:43;;;;;;;5.57;3.58;;;;;;;21.63;63.44;99359.03;5032174;28;20452;-73
2022/09/28 12:54:37;;;;;;;6.25;3.25;;;;;;;21.63;62.06;99367.13;5031952;28;20061;-76
2022/09/28 12:57:42;;;;;;;6.63;2.75;;;;;;;21.65;62.98;99365.06;5031837;28;20061;-74
2022/09/28 13:00:16;;;;;;;5.03;3.10;;;;;;;21.65;63.12;99359.69;5032113;28;20057;-74
2022/09/28 13:03:01;;;;;;;4.18;2.53;;;;;;;21.65;62.49;99351.59;5031753;28;20061;-74
2022/09/28 13:05:34;;;;;;;6.03;3.15;;;;;;;21.66;62.55;99347.03;5031870;28;20053;-74
2022/09/28 13:08:12;;;;;;;;;;;;;;;21.65;62.67;99342.69;5032539;28;20053;-75
2022/09/28 13:10:49;;;;;;;4.78;2.90;;;;;;;21.65;62.51;99332.75;5032308;28;20388;-76
2022/09/28 13:13:28;;;;;;;4.50;2.67;;;;;;;21.67;62.49;99335.25;5040256;28;20054;-77
2022/09/28 13:16:20;;;;;;;5.07;2.95;;;;;;;21.66;62.75;99334.41;5033832;28;20037;-76
2022/09/28 13:18:47;;;;;;;3.90;2.63;;;;;;;21.68;62.43;99335.06;5032485;28;20497;-76
2022/09/28 13:21:18;;;;;;;5.43;2.70;;;;;;;21.67;62.48;99335.25;5034144;28;20045;-75
2022/09/28 13:23:48;;;;;;;6.30;3.05;;;;;;;21.69;62.22;99334.06;5033942;28;20049;-74
2022/09/28 13:26:27;;;;;;;5.60;2.95;;;;;;;21.67;62.37;99337.94;5033772;28;20049;-76
2022/09/28 13:29:03;;;;;;;4.65;3.05;;;;;;;21.68;62.28;99339.63;5033477;28;20052;-75
2022/09/28 13:31:32;;;;;;;5.15;3.05;;;;;;;21.69;61.91;99341.28;5033692;28;20053;-75
2022/09/28 13:34:04;;;;;;;4.57;2.42;;;;;;;21.68;62.11;99337.78;5032259;28;20049;-75
2022/09/28 13:36:31;;;;;;;4.45;2.50;;;;;;;21.70;61.81;99337.56;5033345;28;20045;-75
2022/09/28 13:38:59;;;;;;;4.18;2.70;;;;;;;21.70;62.12;99334.88;5033091;28;20050;-76
2022/09/28 13:41:39;;;;;;;4.57;2.33;;;;;;;21.70;61.66;99334.88;5033247;28;20049;-76
2022/09/28 13:44:09;;;;;;;3.85;2.20;;;;;;;21.71;62.21;99315.00;5048660;28;20053;-76
2022/09/28 13:47:04;;;;;;;6.25;2.85;;;;;;;21.70;61.37;99330.31;5033554;28;20049;-76
2022/09/28 13:50:02;;;;;;;9.80;2.97;;;;;;;21.70;60.73;99330.31;5033675;28;20408;-77
2022/09/28 13:52:33;;;;;;;10.65;3.13;;;;;;;21.71;60.72;99332.03;5033423;28;20056;-77
2022/09/28 13:55:19;;;;;;;5.85;2.70;;;;;;;21.71;60.94;99329.34;5033070;28;20050;-76
2022/09/28 13:57:59;;;;;;;5.72;3.08;;;;;;;21.70;61.60;99316.84;5033147;28;20068;-76
2022/09/28 14:00:48;;;;;;;8.18;3.08;;;;;;;21.69;61.48;99312.50;5032625;28;20049;-76